sensor_id;sensor_type;location;lat;lon;timestamp;P1;P2;P0
74436;PMS7003;62868;52.360;30.424;2022-12-05T00:04:55;0.3;0;0
74436;PMS7003;62868;52.360;30.424;2022-12-05T00:09:19;0.7;0;0
74436;PMS7003;62868;52.360;30.424;2022-12-05T00:14:41;0;0;0
74436;PMS7003;62868;52.360;30.424;2022-12-05T00:19:33;0.3;0;0
74436;PMS7003;62868;52.360;30.424;2022-12-05T00:24:45;0;0;0
74436;PMS7003;62868;52.360;30.424;2022-12-05T00:29:29;0;0;0
74436;PMS7003;62868;52.360;30.424;2022-12-05T00:34:13;0;0;0
74436;PMS7003;62868;52.360;30.424;2022-12-05T00:39:31;0;0;0
74436;PMS7003;62868;52.360;30.424;2022-12-05T00:44:55;0.3;0;0
74436;PMS7003;62868;52.360;30.424;2022-12-05T00:49:33;0;0;0
74436;PMS7003;62868;52.360;30.424;2022-12-05T00:54:55;0.3;0;0
74436;PMS7003;62868;52.360;30.424;2022-12-05T00:59:21;0;0;0
74436;PMS7003;62868;52.360;30.424;2022-12-05T01:04:41;0.3;0;0
74436;PMS7003;62868;52.360;30.424;2022-12-05T01:09:53;0.3;0;0
74436;PMS7003;62868;52.360;30.424;2022-12-05T01:14:53;0.5;0;0
74436;PMS7003;62868;52.360;30.424;2022-12-05T01:19:55;0;0;0
74436;PMS7003;62868;52.360;30.424;2022-12-05T01:24:25;0;0;0
74436;PMS7003;62868;52.360;30.424;2022-12-05T01:29:47;0;0;0
74436;PMS7003;62868;52.360;30.424;2022-12-05T01:34:35;0.3;0.3;0
74436;PMS7003;62868;52.360;30.424;2022-12-05T01:39:47;0;0;0
74436;PMS7003;62868;52.360;30.424;2022-12-05T01:45:06;0;0;0
74436;PMS7003;62868;52.360;30.424;2022-12-05T01:49:26;1.3;0.3;0
74436;PMS7003;62868;52.360;30.424;2022-12-05T01:54:47;0.8;0;0
74436;PMS7003;62868;52.360;30.424;2022-12-05T01:59:56;0;0;0
74436;PMS7003;62868;52.360;30.424;2022-12-05T02:04:13;0;0;0
74436;PMS7003;62868;52.360;30.424;2022-12-05T02:09:15;0;0;0
74436;PMS7003;62868;52.360;30.424;2022-12-05T02:14:35;0;0;0
74436;PMS7003;62868;52.360;30.424;2022-12-05T02:20:01;0.3;0;0
74436;PMS7003;62868;52.360;30.424;2022-12-05T02:25:35;0;0;0
74436;PMS7003;62868;52.360;30.424;2022-12-05T02:29:50;0.3;0;0
74436;PMS7003;62868;52.360;30.424;2022-12-05T02:35:00;0.3;0;0
74436;PMS7003;62868;52.360;30.424;2022-12-05T02:39:13;0;0;0
74436;PMS7003;62868;52.360;30.424;2022-12-05T02:44:55;0;0;0
74436;PMS7003;62868;52.360;30.424;2022-12-05T02:49:45;0.3;0;0
74436;PMS7003;62868;52.360;30.424;2022-12-05T02:54:49;0.3;0.3;0
74436;PMS7003;62868;52.360;30.424;2022-12-05T02:59:33;0.7;0.3;0
74436;PMS7003;62868;52.360;30.424;2022-12-05T03:04:37;0.3;0.3;0
74436;PMS7003;62868;52.360;30.424;2022-12-05T03:09:36;0.8;0;0
74436;PMS7003;62868;52.360;30.424;2022-12-05T03:15:02;0;0;0
74436;PMS7003;62868;52.360;30.424;2022-12-05T03:19:39;0;0;0
74436;PMS7003;62868;52.360;30.424;2022-12-05T03:24:47;0.3;0;0
74436;PMS7003;62868;52.360;30.424;2022-12-05T03:29:17;0.8;0;0
74436;PMS7003;62868;52.360;30.424;2022-12-05T03:35:03;1;0;0
74436;PMS7003;62868;52.360;30.424;2022-12-05T03:39:37;0.3;0;0
74436;PMS7003;62868;52.360;30.424;2022-12-05T03:44:48;1.3;0.3;0
74436;PMS7003;62868;52.360;30.424;2022-12-05T03:50:03;0.5;0.5;0
74436;PMS7003;62868;52.360;30.424;2022-12-05T03:54:34;0;0;0
74436;PMS7003;62868;52.360;30.424;2022-12-05T04:00:03;0.3;0.3;0
74436;PMS7003;62868;52.360;30.424;2022-12-05T04:04:46;0.3;0;0
74436;PMS7003;62868;52.360;30.424;2022-12-05T04:10:02;0;0;0
74436;PMS7003;62868;52.360;30.424;2022-12-05T04:14:31;0.3;0;0
74436;PMS7003;62868;52.360;30.424;2022-12-05T04:19:36;0.3;0;0
74436;PMS7003;62868;52.360;30.424;2022-12-05T04:24:21;0;0;0
74436;PMS7003;62868;52.360;30.424;2022-12-05T04:29:53;0;0;0
74436;PMS7003;62868;52.360;30.424;2022-12-05T04:34:35;0.7;0;0
74436;PMS7003;62868;52.360;30.424;2022-12-05T04:39:57;0;0;0
74436;PMS7003;62868;52.360;30.424;2022-12-05T04:44:50;0;0;0
74436;PMS7003;62868;52.360;30.424;2022-12-05T04:49:35;0.3;0.3;0
74436;PMS7003;62868;52.360;30.424;2022-12-05T04:54:33;0.3;0;0
74436;PMS7003;62868;52.360;30.424;2022-12-05T04:59:45;0;0;0
74436;PMS7003;62868;52.360;30.424;2022-12-05T05:04:57;0;0;0
74436;PMS7003;62868;52.360;30.424;2022-12-05T05:09:13;0.3;0;0
74436;PMS7003;62868;52.360;30.424;2022-12-05T05:14:57;0;0;0
74436;PMS7003;62868;52.360;30.424;2022-12-05T05:19:43;0.3;0;0
74436;PMS7003;62868;52.360;30.424;2022-12-05T05:24:47;0.3;0;0
74436;PMS7003;62868;52.360;30.424;2022-12-05T05:29:31;0.3;0;0
74436;PMS7003;62868;52.360;30.424;2022-12-05T05:34:13;0.3;0.3;0
74436;PMS7003;62868;52.360;30.424;2022-12-05T05:39:25;0.3;0.3;0
74436;PMS7003;62868;52.360;30.424;2022-12-05T05:44:59;1;0;0
74436;PMS7003;62868;52.360;30.424;2022-12-05T05:49:23;0;0;0
74436;PMS7003;62868;52.360;30.424;2022-12-05T05:54:59;0;0;0
74436;PMS7003;62868;52.360;30.424;2022-12-05T05:59:25;0.3;0.3;0
74436;PMS7003;62868;52.360;30.424;2022-12-05T06:04:45;0.3;0.3;0
74436;PMS7003;62868;52.360;30.424;2022-12-05T06:09:35;0.7;0;0
74436;PMS7003;62868;52.360;30.424;2022-12-05T06:14:47;2;0;0
74436;PMS7003;62868;52.360;30.424;2022-12-05T06:19:59;0.8;0.3;0
74436;PMS7003;62868;52.360;30.424;2022-12-05T06:24:25;0.3;0;0
74436;PMS7003;62868;52.360;30.424;2022-12-05T06:29:57;0.3;0;0
74436;PMS7003;62868;52.360;30.424;2022-12-05T06:34:33;0;0;0
74436;PMS7003;62868;52.360;30.424;2022-12-05T06:39:49;1.8;0.3;0
74436;PMS7003;62868;52.360;30.424;2022-12-05T06:44:21;0.7;0;0
74436;PMS7003;62868;52.360;30.424;2022-12-05T06:49:25;0.3;0;0
74436;PMS7003;62868;52.360;30.424;2022-12-05T06:54:35;1;0;0
74436;PMS7003;62868;52.360;30.424;2022-12-05T06:59:59;0.3;0;0
74436;PMS7003;62868;52.360;30.424;2022-12-05T07:04:35;1;0;0
74436;PMS7003;62868;52.360;30.424;2022-12-05T07:09:57;1.3;0;0
74436;PMS7003;62868;52.360;30.424;2022-12-05T07:14:13;0.3;0;0
74436;PMS7003;62868;52.360;30.424;2022-12-05T07:19:13;0;0;0
74436;PMS7003;62868;52.360;30.424;2022-12-05T07:24:33;5.7;2.7;1.3
74436;PMS7003;62868;52.360;30.424;2022-12-05T07:29:15;7;3;1
74436;PMS7003;62868;52.360;30.424;2022-12-05T07:34:45;6;5.3;3.7
74436;PMS7003;62868;52.360;30.424;2022-12-05T07:39:13;4.3;3.3;1.5
74436;PMS7003;62868;52.360;30.424;2022-12-05T07:44:35;2.3;2.3;1.3
74436;PMS7003;62868;52.360;30.424;2022-12-05T07:49:57;4;2.3;1.7
74436;PMS7003;62868;52.360;30.424;2022-12-05T07:54:47;1;0.5;0.3
74436;PMS7003;62868;52.360;30.424;2022-12-05T07:59:31;2;1.3;1
74436;PMS7003;62868;52.360;30.424;2022-12-05T08:04:23;0.7;0.3;0
74436;PMS7003;62868;52.360;30.424;2022-12-05T08:09:13;0.7;0.3;0
74436;PMS7003;62868;52.360;30.424;2022-12-05T08:14:57;1;0.5;0
74436;PMS7003;62868;52.360;30.424;2022-12-05T08:19:35;0.3;0.3;0
74436;PMS7003;62868;52.360;30.424;2022-12-05T08:24:57;0;0;0
74436;PMS7003;62868;52.360;30.424;2022-12-05T08:29:13;0.7;0.7;0.3
74436;PMS7003;62868;52.360;30.424;2022-12-05T08:34:23;2;0.3;0
74436;PMS7003;62868;52.360;30.424;2022-12-05T08:39:33;0.3;0;0
74436;PMS7003;62868;52.360;30.424;2022-12-05T08:44:55;0.3;0;0
74436;PMS7003;62868;52.360;30.424;2022-12-05T08:49:41;1;0;0
74436;PMS7003;62868;52.360;30.424;2022-12-05T08:54:31;1.8;1.3;0.5
74436;PMS7003;62868;52.360;30.424;2022-12-05T08:59:13;2.7;1;0.7
74436;PMS7003;62868;52.360;30.424;2022-12-05T09:04:57;1.7;0.7;0.7
74436;PMS7003;62868;52.360;30.424;2022-12-05T09:09:47;5.3;2.8;0.8
74436;PMS7003;62868;52.360;30.424;2022-12-05T09:14:23;2.7;1.7;1.3
74436;PMS7003;62868;52.360;30.424;2022-12-05T09:19:23;3.3;1.7;1.3
74436;PMS7003;62868;52.360;30.424;2022-12-05T09:24:23;1.7;1;0.7
74436;PMS7003;62868;52.360;30.424;2022-12-05T09:29:55;1.8;0.3;0
74436;PMS7003;62868;52.360;30.424;2022-12-05T09:34:13;0.7;0.3;0
74436;PMS7003;62868;52.360;30.424;2022-12-05T09:39:43;0.3;0.3;0.3
74436;PMS7003;62868;52.360;30.424;2022-12-05T09:44:25;1.7;1.3;0.3
74436;PMS7003;62868;52.360;30.424;2022-12-05T09:49:23;0.8;0.8;0.3
74436;PMS7003;62868;52.360;30.424;2022-12-05T09:54:33;2.7;1.7;0.7
74436;PMS7003;62868;52.360;30.424;2022-12-05T09:59:45;0.7;0.3;0.3
74436;PMS7003;62868;52.360;30.424;2022-12-05T10:04:48;1.7;1;0
74436;PMS7003;62868;52.360;30.424;2022-12-05T10:09:28;0.5;0.3;0
74436;PMS7003;62868;52.360;30.424;2022-12-05T10:14:25;1;0.3;0
74436;PMS7003;62868;52.360;30.424;2022-12-05T10:19:56;2.3;1;0.3
74436;PMS7003;62868;52.360;30.424;2022-12-05T10:24:48;2;1.3;1
74436;PMS7003;62868;52.360;30.424;2022-12-05T10:29:32;2.3;1;0.7
74436;PMS7003;62868;52.360;30.424;2022-12-05T10:34:36;1;0.7;0
74436;PMS7003;62868;52.360;30.424;2022-12-05T10:39:13;1;1;0.3
74436;PMS7003;62868;52.360;30.424;2022-12-05T10:44:58;0.5;0.3;0.3
74436;PMS7003;62868;52.360;30.424;2022-12-05T10:49:35;3;2;0.3
74436;PMS7003;62868;52.360;30.424;2022-12-05T10:54:58;1;1;1
74436;PMS7003;62868;52.360;30.424;2022-12-05T10:59:15;2.3;1.7;1.7
74436;PMS7003;62868;52.360;30.424;2022-12-05T11:04:18;0.8;0.3;0.3
74436;PMS7003;62868;52.360;30.424;2022-12-05T11:09:34;0.7;0.7;0
74436;PMS7003;62868;52.360;30.424;2022-12-05T11:14:56;0;0;0
74436;PMS7003;62868;52.360;30.424;2022-12-05T11:19:36;0.3;0.3;0
74436;PMS7003;62868;52.360;30.424;2022-12-05T11:24:19;0.5;0.5;0.5
74436;PMS7003;62868;52.360;30.424;2022-12-05T11:29:27;0.7;0.3;0
74436;PMS7003;62868;52.360;30.424;2022-12-05T11:35:00;0.3;0;0
74436;PMS7003;62868;52.360;30.424;2022-12-05T11:39:47;2.3;0.7;0.3
74436;PMS7003;62868;52.360;30.424;2022-12-05T11:44:26;0.3;0.3;0
74436;PMS7003;62868;52.360;30.424;2022-12-05T11:49:38;1;0.3;0
74436;PMS7003;62868;52.360;30.424;2022-12-05T11:54:17;1.3;0;0
74436;PMS7003;62868;52.360;30.424;2022-12-05T11:59:55;1;0;0
74436;PMS7003;62868;52.360;30.424;2022-12-05T12:04:42;1.3;0.3;0
74436;PMS7003;62868;52.360;30.424;2022-12-05T12:09:32;0.7;0.3;0
74436;PMS7003;62868;52.360;30.424;2022-12-05T12:14:35;0.3;0.3;0
74436;PMS7003;62868;52.360;30.424;2022-12-05T12:19:29;0.8;0;0
74436;PMS7003;62868;52.360;30.424;2022-12-05T12:24:39;1.3;0.3;0
74436;PMS7003;62868;52.360;30.424;2022-12-05T12:29:51;0.3;0;0
74436;PMS7003;62868;52.360;30.424;2022-12-05T12:34:38;1.3;0;0
74436;PMS7003;62868;52.360;30.424;2022-12-05T12:39:49;1.3;0.3;0
74436;PMS7003;62868;52.360;30.424;2022-12-05T12:44:38;2;1.3;0.3
74436;PMS7003;62868;52.360;30.424;2022-12-05T12:49:59;0.3;0.3;0
74436;PMS7003;62868;52.360;30.424;2022-12-05T12:55:00;0.7;0.3;0
74436;PMS7003;62868;52.360;30.424;2022-12-05T12:59:48;1.8;1;0.3
74436;PMS7003;62868;52.360;30.424;2022-12-05T13:04:47;0.7;0.7;0.3
74436;PMS7003;62868;52.360;30.424;2022-12-05T13:09:13;0.7;0.3;0.3
74436;PMS7003;62868;52.360;30.424;2022-12-05T13:14:56;0.7;0;0
74436;PMS7003;62868;52.360;30.424;2022-12-05T13:19:39;0.3;0.3;0.3
74436;PMS7003;62868;52.360;30.424;2022-12-05T13:24:35;0.7;0;0
74436;PMS7003;62868;52.360;30.424;2022-12-05T13:29:33;0.3;0;0
74436;PMS7003;62868;52.360;30.424;2022-12-05T13:34:41;1.3;0;0
74436;PMS7003;62868;52.360;30.424;2022-12-05T13:39:35;1.3;0.5;0
74436;PMS7003;62868;52.360;30.424;2022-12-05T13:44:48;0.3;0.3;0
74436;PMS7003;62868;52.360;30.424;2022-12-05T13:49:46;2.3;0.7;0.3
74436;PMS7003;62868;52.360;30.424;2022-12-05T13:54:49;0.7;0.3;0
74436;PMS7003;62868;52.360;30.424;2022-12-05T13:59:59;0.3;0;0
74436;PMS7003;62868;52.360;30.424;2022-12-05T14:05:01;0.3;0.3;0.3
74436;PMS7003;62868;52.360;30.424;2022-12-05T14:10:01;1.3;0.7;0.3
74436;PMS7003;62868;52.360;30.424;2022-12-05T14:14:35;2.8;1.5;1
74436;PMS7003;62868;52.360;30.424;2022-12-05T14:19:50;3.7;2.3;1.7
74436;PMS7003;62868;52.360;30.424;2022-12-05T14:24:14;4;2.7;2.3
74436;PMS7003;62868;52.360;30.424;2022-12-05T14:30:02;5;2;1.7
74436;PMS7003;62868;52.360;30.424;2022-12-05T14:34:52;2.8;2.8;1.5
74436;PMS7003;62868;52.360;30.424;2022-12-05T14:39:48;4.7;1.3;0.7
74436;PMS7003;62868;52.360;30.424;2022-12-05T14:44:23;2.3;0.7;0.7
74436;PMS7003;62868;52.360;30.424;2022-12-05T14:49:33;2.7;1.7;1
74436;PMS7003;62868;52.360;30.424;2022-12-05T14:54:39;4;2;1
74436;PMS7003;62868;52.360;30.424;2022-12-05T14:59:28;2.3;1.3;0.7
74436;PMS7003;62868;52.360;30.424;2022-12-05T15:04:49;1;0.7;0.7
74436;PMS7003;62868;52.360;30.424;2022-12-05T15:09:49;0.3;0.3;0
74436;PMS7003;62868;52.360;30.424;2022-12-05T15:14:27;1.5;0.3;0
74436;PMS7003;62868;52.360;30.424;2022-12-05T15:19:50;1.7;0.7;0.3
74436;PMS7003;62868;52.360;30.424;2022-12-05T15:25:12;2.3;1;0.7
74436;PMS7003;62868;52.360;30.424;2022-12-05T15:29:15;3.7;2.3;1
74436;PMS7003;62868;52.360;30.424;2022-12-05T15:34:49;4.3;2.8;2.5
74436;PMS7003;62868;52.360;30.424;2022-12-05T15:39:16;6;5.7;3.3
74436;PMS7003;62868;52.360;30.424;2022-12-05T15:45:17;8.3;5.3;3.3
74436;PMS7003;62868;52.360;30.424;2022-12-05T15:49:26;12;8.7;5.3
74436;PMS7003;62868;52.360;30.424;2022-12-05T15:54:47;6.5;5;3.5
74436;PMS7003;62868;52.360;30.424;2022-12-05T15:59:34;6.3;4.7;3
74436;PMS7003;62868;52.360;30.424;2022-12-05T16:04:14;3.3;2.3;1
74436;PMS7003;62868;52.360;30.424;2022-12-05T16:09:47;3.5;1.5;1.5
74436;PMS7003;62868;52.360;30.424;2022-12-05T16:14:48;3.7;2.3;1.7
74436;PMS7003;62868;52.360;30.424;2022-12-05T16:20:31;6.7;5;3
74436;PMS7003;62868;52.360;30.424;2022-12-05T16:25:00;6.5;4;3
74436;PMS7003;62868;52.360;30.424;2022-12-05T16:29:26;0.8;0.8;0.3
74436;PMS7003;62868;52.360;30.424;2022-12-05T16:34:47;2;1;0.7
74436;PMS7003;62868;52.360;30.424;2022-12-05T16:39:35;1.7;0.7;0.7
74436;PMS7003;62868;52.360;30.424;2022-12-05T16:44:55;1.3;0.3;0
74436;PMS7003;62868;52.360;30.424;2022-12-05T16:49:15;1;0.5;0.3
74436;PMS7003;62868;52.360;30.424;2022-12-05T16:54:13;0.3;0;0
74436;PMS7003;62868;52.360;30.424;2022-12-05T16:59:35;0.7;0;0
74436;PMS7003;62868;52.360;30.424;2022-12-05T17:04:59;0.3;0;0
74436;PMS7003;62868;52.360;30.424;2022-12-05T17:09:23;1;0.8;0.3
74436;PMS7003;62868;52.360;30.424;2022-12-05T17:14:59;2;0.3;0.3
74436;PMS7003;62868;52.360;30.424;2022-12-05T17:19:25;0.3;0;0
74436;PMS7003;62868;52.360;30.424;2022-12-05T17:24:47;0.7;0.3;0.3
74436;PMS7003;62868;52.360;30.424;2022-12-05T17:29:49;1.5;0.3;0
74436;PMS7003;62868;52.360;30.424;2022-12-05T17:34:59;1;0.7;0
74436;PMS7003;62868;52.360;30.424;2022-12-05T17:39:57;1;0.7;0.7
74436;PMS7003;62868;52.360;30.424;2022-12-05T17:44:25;0;0;0
74436;PMS7003;62868;52.360;30.424;2022-12-05T17:49:47;0.7;0;0
74436;PMS7003;62868;52.360;30.424;2022-12-05T17:54:35;0.3;0;0
74436;PMS7003;62868;52.360;30.424;2022-12-05T17:59:49;0.8;0.3;0
74436;PMS7003;62868;52.360;30.424;2022-12-05T18:04:13;1.5;0.5;0.5
74436;PMS7003;62868;52.360;30.424;2022-12-05T18:09:35;1.7;0.3;0
74436;PMS7003;62868;52.360;30.424;2022-12-05T18:14:37;1.3;0.3;0
74436;PMS7003;62868;52.360;30.424;2022-12-05T18:19:59;0.3;0;0
74436;PMS7003;62868;52.360;30.424;2022-12-05T18:24:23;0.7;0;0
74436;PMS7003;62868;52.360;30.424;2022-12-05T18:29:59;0.3;0;0
74436;PMS7003;62868;52.360;30.424;2022-12-05T18:34:25;0;0;0
74436;PMS7003;62868;52.360;30.424;2022-12-05T18:39:47;0;0;0
74436;PMS7003;62868;52.360;30.424;2022-12-05T18:44:49;0.3;0;0
74436;PMS7003;62868;52.360;30.424;2022-12-05T18:50:00;0.3;0;0
74436;PMS7003;62868;52.360;30.424;2022-12-05T18:54:59;0.3;0;0
74436;PMS7003;62868;52.360;30.424;2022-12-05T18:59:25;1.3;1;0
74436;PMS7003;62868;52.360;30.424;2022-12-05T19:04:47;1.3;0;0
74436;PMS7003;62868;52.360;30.424;2022-12-05T19:09:35;0.3;0;0
74436;PMS7003;62868;52.360;30.424;2022-12-05T19:14:47;0;0;0
74436;PMS7003;62868;52.360;30.424;2022-12-05T19:19:33;1.3;0.3;0
74436;PMS7003;62868;52.360;30.424;2022-12-05T19:24:25;0.3;0;0
74436;PMS7003;62868;52.360;30.424;2022-12-05T19:29:37;0.8;0;0
74436;PMS7003;62868;52.360;30.424;2022-12-05T19:34:59;0.7;0.7;0
74436;PMS7003;62868;52.360;30.424;2022-12-05T19:39:39;0.7;0.3;0
74436;PMS7003;62868;52.360;30.424;2022-12-05T19:44:59;0.7;0.3;0
74436;PMS7003;62868;52.360;30.424;2022-12-05T19:49:14;0.8;0;0
74436;PMS7003;62868;52.360;30.424;2022-12-05T19:54:47;0;0;0
74436;PMS7003;62868;52.360;30.424;2022-12-05T19:59:49;1;0.3;0
74436;PMS7003;62868;52.360;30.424;2022-12-05T20:04:59;1;0.3;0
74436;PMS7003;62868;52.360;30.424;2022-12-05T20:09:59;0.5;0.3;0.3
74436;PMS7003;62868;52.360;30.424;2022-12-05T20:14:59;2;0.3;0
74436;PMS7003;62868;52.360;30.424;2022-12-05T20:19:35;1;0.3;0
74436;PMS7003;62868;52.360;30.424;2022-12-05T20:24:23;1.7;0.7;0.3
74436;PMS7003;62868;52.360;30.424;2022-12-05T20:29:37;2;1.3;0.8
74436;PMS7003;62868;52.360;30.424;2022-12-05T20:34:33;1.7;1;1
74436;PMS7003;62868;52.360;30.424;2022-12-05T20:39:25;2;2;0.7
74436;PMS7003;62868;52.360;30.424;2022-12-05T20:44:23;2;0.5;0.3
74436;PMS7003;62868;52.360;30.424;2022-12-05T20:49:59;1.7;1.3;0
74436;PMS7003;62868;52.360;30.424;2022-12-05T20:54:35;3;1.7;1.7
74436;PMS7003;62868;52.360;30.424;2022-12-05T20:59:57;3.3;2;0.7
74436;PMS7003;62868;52.360;30.424;2022-12-05T21:04:13;1.8;1.8;0.5
74436;PMS7003;62868;52.360;30.424;2022-12-05T21:09:47;1.7;1.3;0.3
74436;PMS7003;62868;52.360;30.424;2022-12-05T21:14:35;0.7;0.7;0.3
74436;PMS7003;62868;52.360;30.424;2022-12-05T21:19:43;3.3;2.3;1.7
74436;PMS7003;62868;52.360;30.424;2022-12-05T21:24:47;1.5;1;1
74436;PMS7003;62868;52.360;30.424;2022-12-05T21:29:13;1.7;1;0.7
74436;PMS7003;62868;52.360;30.424;2022-12-05T21:34:49;0.3;0.3;0
74436;PMS7003;62868;52.360;30.424;2022-12-05T21:39:47;1.3;0.3;0.3
74436;PMS7003;62868;52.360;30.424;2022-12-05T21:44:45;1;0.3;0.3
74436;PMS7003;62868;52.360;30.424;2022-12-05T21:49:29;2;0.7;0.3
74436;PMS7003;62868;52.360;30.424;2022-12-05T21:54:21;2.7;0.7;0
74436;PMS7003;62868;52.360;30.424;2022-12-05T21:59:34;0.7;0;0
74436;PMS7003;62868;52.360;30.424;2022-12-05T22:04:55;1;1;0.5
74436;PMS7003;62868;52.360;30.424;2022-12-05T22:09:13;0;0;0
74436;PMS7003;62868;52.360;30.424;2022-12-05T22:14:51;0.3;0;0
74436;PMS7003;62868;52.360;30.424;2022-12-05T22:19:13;0.7;0;0
74436;PMS7003;62868;52.360;30.424;2022-12-05T22:24:45;0.5;0;0
74436;PMS7003;62868;52.360;30.424;2022-12-05T22:29:21;0.7;0;0
74436;PMS7003;62868;52.360;30.424;2022-12-05T22:34:39;0.7;0.3;0
74436;PMS7003;62868;52.360;30.424;2022-12-05T22:39:55;0.3;0.3;0
74436;PMS7003;62868;52.360;30.424;2022-12-05T22:44:21;0;0;0
74436;PMS7003;62868;52.360;30.424;2022-12-05T22:49:55;1;0;0
74436;PMS7003;62868;52.360;30.424;2022-12-05T22:54:43;1;0.3;0
74436;PMS7003;62868;52.360;30.424;2022-12-05T22:59:45;0.5;0.3;0
74436;PMS7003;62868;52.360;30.424;2022-12-05T23:04:13;2;0;0
74436;PMS7003;62868;52.360;30.424;2022-12-05T23:09:13;2.7;0.7;0.3
74436;PMS7003;62868;52.360;30.424;2022-12-05T23:14:29;1;1;0.3
74436;PMS7003;62868;52.360;30.424;2022-12-05T23:19:55;1.3;0;0
74436;PMS7003;62868;52.360;30.424;2022-12-05T23:24:31;0.3;0.3;0
74436;PMS7003;62868;52.360;30.424;2022-12-05T23:29:55;2.3;1;0.3
74436;PMS7003;62868;52.360;30.424;2022-12-05T23:34:21;1.3;0.7;0
74436;PMS7003;62868;52.360;30.424;2022-12-05T23:39:43;0;0;0
74436;PMS7003;62868;52.360;30.424;2022-12-05T23:44:29;1.7;0.3;0
74436;PMS7003;62868;52.360;30.424;2022-12-05T23:49:41;0.3;0.3;0
74436;PMS7003;62868;52.360;30.424;2022-12-05T23:54:47;0;0;0
74436;PMS7003;62868;52.360;30.424;2022-12-05T23:59:21;1.8;0.8;0
